createdAt,value
2023-05-24T00:01:49.341Z,68.04
2023-05-24T00:04:20.288Z,68.00
2023-05-24T00:06:49.539Z,67.29
2023-05-24T00:09:19.032Z,67.33
2023-05-24T00:11:48.404Z,67.69
2023-05-24T00:14:15.445Z,67.94
2023-05-24T00:16:46.754Z,68.10
2023-05-24T00:19:18.661Z,67.91
2023-05-24T00:21:46.916Z,67.95
2023-05-24T00:24:17.604Z,68.02
2023-05-24T00:26:48.691Z,68.17
2023-05-24T00:29:17.927Z,68.29
2023-05-24T00:31:44.856Z,68.16
2023-05-24T00:34:11.937Z,68.35
2023-05-24T00:36:43.589Z,68.52
2023-05-24T00:39:10.677Z,68.50
2023-05-24T00:41:39.788Z,68.07
2023-05-24T00:44:11.809Z,68.48
2023-05-24T00:46:39.663Z,68.53
2023-05-24T00:49:11.904Z,68.27
2023-05-24T00:51:41.228Z,68.38
2023-05-24T00:54:08.262Z,68.64
2023-05-24T00:56:35.809Z,68.64
2023-05-24T00:59:03.247Z,68.54
2023-05-24T01:01:34.564Z,68.68
2023-05-24T01:04:02.117Z,69.08
2023-05-24T01:06:33.322Z,69.10
2023-05-24T01:09:03.296Z,68.87
2023-05-24T01:11:51.036Z,69.01
2023-05-24T01:14:26.933Z,68.69
2023-05-24T01:17:04.930Z,68.42
2023-05-24T01:19:51.410Z,68.91
2023-05-24T01:22:47.194Z,69.41
2023-05-24T01:25:39.189Z,69.23
2023-05-24T01:28:10.623Z,69.02
2023-05-24T01:30:41.990Z,69.15
2023-05-24T01:33:09.254Z,69.18
2023-05-24T01:35:40.659Z,69.16
2023-05-24T01:38:12.325Z,69.14
2023-05-24T01:40:40.767Z,69.39
2023-05-24T01:43:36.066Z,70.07
2023-05-24T01:46:21.250Z,69.17
2023-05-24T01:49:20.766Z,69.55
2023-05-24T01:52:02.295Z,69.61
2023-05-24T01:54:33.494Z,69.48
2023-05-24T01:57:05.639Z,69.41
2023-05-24T01:59:33.761Z,69.29
2023-05-24T02:02:01.818Z,69.56
2023-05-24T02:04:29.020Z,69.69
2023-05-24T02:06:55.834Z,69.59
2023-05-24T02:09:24.936Z,69.38
2023-05-24T02:11:51.928Z,69.43
2023-05-24T02:14:20.101Z,69.27
2023-05-24T02:16:51.062Z,69.53
2023-05-24T02:19:19.163Z,69.52
2023-05-24T02:21:48.415Z,69.77
2023-05-24T02:24:20.150Z,69.53
2023-05-24T02:26:47.123Z,69.34
2023-05-24T02:29:16.761Z,69.61
2023-05-24T02:31:43.668Z,69.59
2023-05-24T02:34:10.711Z,69.95
2023-05-24T02:36:37.688Z,69.83
2023-05-24T02:39:06.887Z,69.43
2023-05-24T02:41:33.829Z,69.64
2023-05-24T02:44:00.846Z,69.93
2023-05-24T02:46:27.836Z,70.03
2023-05-24T02:48:57.141Z,70.10
2023-05-24T02:51:26.818Z,69.97
2023-05-24T02:53:53.651Z,69.84
2023-05-24T02:56:22.254Z,69.88
2023-05-24T02:58:49.161Z,69.87
2023-05-24T03:01:16.277Z,69.64
2023-05-24T03:03:45.796Z,70.00
2023-05-24T03:06:15.586Z,69.90
2023-05-24T03:08:42.560Z,69.78
2023-05-24T03:11:09.497Z,69.62
2023-05-24T03:13:38.660Z,69.69
2023-05-24T03:16:08.701Z,69.76
2023-05-24T03:18:36.266Z,69.93
2023-05-24T03:21:03.201Z,69.75
2023-05-24T03:23:38.662Z,70.01
2023-05-24T03:26:07.604Z,70.09
2023-05-24T03:28:40.893Z,69.81
2023-05-24T03:31:08.627Z,69.74
2023-05-24T03:33:36.646Z,70.10
2023-05-24T03:36:04.461Z,70.04
2023-05-24T03:38:34.440Z,70.51
2023-05-24T03:41:03.986Z,69.90
2023-05-24T03:43:33.965Z,69.84
2023-05-24T03:46:03.549Z,69.76
2023-05-24T03:48:33.008Z,69.47
2023-05-24T03:51:04.629Z,69.78
2023-05-24T03:53:35.717Z,69.94
2023-05-24T03:56:02.853Z,69.53
2023-05-24T03:58:29.814Z,69.60
2023-05-24T04:00:56.833Z,69.56
2023-05-24T04:03:26.404Z,69.88
2023-05-24T04:05:55.219Z,69.70
2023-05-24T04:08:24.316Z,69.77
2023-05-24T04:10:51.194Z,69.71
2023-05-24T04:13:20.619Z,70.35
2023-05-24T04:15:52.268Z,70.20
2023-05-24T04:18:21.972Z,70.26
2023-05-24T04:20:51.242Z,70.02
2023-05-24T04:23:20.094Z,70.32
2023-05-24T04:25:47.344Z,70.19
2023-05-24T04:28:15.476Z,70.16
2023-05-24T04:30:42.595Z,70.12
2023-05-24T04:33:09.578Z,70.14
2023-05-24T04:35:36.533Z,70.04
2023-05-24T04:38:04.353Z,69.95
2023-05-24T04:40:35.653Z,69.66
2023-05-24T04:43:02.985Z,69.65
2023-05-24T04:45:33.409Z,69.87
2023-05-24T04:48:05.295Z,69.71
2023-05-24T04:50:35.534Z,69.72
2023-05-24T04:53:05.272Z,69.82
2023-05-24T04:55:32.865Z,69.81
2023-05-24T04:58:01.896Z,69.68
2023-05-24T05:00:28.795Z,69.61
2023-05-24T05:02:55.698Z,69.28
2023-05-24T05:05:25.006Z,69.79
2023-05-24T05:07:51.911Z,69.85
2023-05-24T05:10:23.607Z,69.90
2023-05-24T05:12:51.182Z,70.08
2023-05-24T05:15:18.122Z,70.00
2023-05-24T05:17:47.480Z,69.86
2023-05-24T05:20:17.037Z,70.03
2023-05-24T05:22:49.872Z,69.70
2023-05-24T05:25:19.303Z,69.73
2023-05-24T05:27:46.268Z,69.64
2023-05-24T05:30:13.494Z,69.82
2023-05-24T05:32:40.590Z,69.70
2023-05-24T05:35:08.224Z,69.90
2023-05-24T05:37:37.325Z,69.64
2023-05-24T05:40:07.354Z,69.75
2023-05-24T05:42:34.197Z,70.27
2023-05-24T05:45:01.275Z,69.94
2023-05-24T05:47:32.514Z,69.99
2023-05-24T05:49:59.390Z,69.85
2023-05-24T05:52:31.181Z,69.96
2023-05-24T05:54:59.413Z,70.00
2023-05-24T05:57:33.707Z,70.28
2023-05-24T06:00:03.606Z,70.19
2023-05-24T06:02:41.418Z,70.21
2023-05-24T06:05:09.120Z,70.71
2023-05-24T06:07:39.028Z,70.63
2023-05-24T06:10:08.716Z,70.62
2023-05-24T06:12:38.287Z,71.00
2023-05-24T06:15:06.899Z,71.03
2023-05-24T06:17:37.227Z,71.31
2023-05-24T06:20:12.275Z,71.53
2023-05-24T06:22:45.215Z,70.92
2023-05-24T06:25:15.112Z,70.92
2023-05-24T06:27:44.239Z,71.39
2023-05-24T06:30:11.678Z,71.47
2023-05-24T06:32:40.992Z,72.29
2023-05-24T06:35:13.096Z,71.51
2023-05-24T06:37:40.217Z,72.10
2023-05-24T06:40:10.452Z,71.87
2023-05-24T06:42:40.167Z,71.51
2023-05-24T06:45:11.982Z,71.86
2023-05-24T06:47:41.244Z,71.73
2023-05-24T06:50:12.931Z,71.22
2023-05-24T06:52:42.283Z,70.97
2023-05-24T06:55:16.959Z,71.20
2023-05-24T06:57:43.888Z,70.35
2023-05-24T07:00:18.231Z,70.59
2023-05-24T07:02:47.315Z,70.51
2023-05-24T07:05:16.530Z,70.58
2023-05-24T07:07:46.262Z,70.47
2023-05-24T07:10:20.453Z,70.78
2023-05-24T07:12:47.335Z,71.21
2023-05-24T07:15:21.537Z,70.74
2023-05-24T07:17:54.480Z,70.54
2023-05-24T07:20:26.250Z,70.30
2023-05-24T07:22:55.285Z,70.50
2023-05-24T07:25:29.204Z,70.55
2023-05-24T07:27:56.159Z,70.45
2023-05-24T07:33:05.230Z,70.19
2023-05-24T07:35:38.786Z,69.44
2023-05-24T07:38:07.965Z,69.15
2023-05-24T07:40:39.674Z,69.15
2023-05-24T07:43:11.268Z,69.14
2023-05-24T07:45:45.705Z,68.50
2023-05-24T07:48:14.953Z,68.53
2023-05-24T07:50:48.992Z,69.00
2023-05-24T07:53:16.257Z,68.78
2023-05-24T07:55:45.481Z,68.40
2023-05-24T07:58:14.827Z,69.04
2023-05-24T08:00:43.872Z,69.26
2023-05-24T08:03:20.360Z,68.21
2023-05-24T08:05:50.468Z,68.10
2023-05-24T08:08:20.575Z,68.34
2023-05-24T08:10:51.975Z,67.86
2023-05-24T08:13:21.355Z,67.74
2023-05-24T08:15:50.836Z,67.93
2023-05-24T08:18:17.682Z,67.09
2023-05-24T08:20:46.973Z,67.54
2023-05-24T08:23:19.279Z,68.79
2023-05-24T08:25:48.962Z,68.70
2023-05-24T08:28:17.150Z,68.40
2023-05-24T08:30:48.816Z,68.25
2023-05-24T08:33:26.362Z,68.19
2023-05-24T08:35:55.373Z,68.08
2023-05-24T08:38:24.594Z,68.04
2023-05-24T08:40:56.806Z,68.15
2023-05-24T08:43:27.364Z,68.10
2023-05-24T08:45:59.320Z,67.93
2023-05-24T08:48:31.547Z,68.37
2023-05-24T08:50:58.912Z,68.13
2023-05-24T08:53:28.130Z,67.56
2023-05-24T08:55:59.956Z,67.14
2023-05-24T08:58:35.181Z,66.95
2023-05-24T09:01:09.613Z,67.40
2023-05-24T09:03:41.045Z,67.15
2023-05-24T09:06:17.931Z,66.79
2023-05-24T09:08:47.847Z,66.84
2023-05-24T09:11:19.819Z,66.69
2023-05-24T09:13:48.226Z,66.48
2023-05-24T09:16:17.710Z,65.89
2023-05-24T09:18:47.191Z,65.87
2023-05-24T09:21:23.318Z,66.14
2023-05-24T09:23:50.687Z,66.58
2023-05-24T09:26:19.871Z,66.56
2023-05-24T09:28:50.910Z,66.64
2023-05-24T09:31:32.050Z,66.42
2023-05-24T09:33:58.897Z,66.49
2023-05-24T09:36:26.344Z,66.17
2023-05-24T09:39:10.145Z,66.20
2023-05-24T09:41:39.784Z,65.87
2023-05-24T09:44:08.914Z,66.12
2023-05-24T09:46:40.724Z,65.94
2023-05-24T09:49:10.125Z,65.72
2023-05-24T09:51:39.209Z,65.52
2023-05-24T09:54:11.449Z,65.69
2023-05-24T09:56:44.501Z,66.09
2023-05-24T09:59:15.199Z,65.69
2023-05-24T10:01:47.458Z,65.26
2023-05-24T10:04:17.037Z,65.56
2023-05-24T10:06:48.249Z,65.22
2023-05-24T10:09:15.425Z,64.93
2023-05-24T10:11:42.671Z,65.26
2023-05-24T10:14:10.047Z,65.30
2023-05-24T10:16:41.506Z,65.53
2023-05-24T10:19:08.538Z,66.10
2023-05-24T10:21:43.412Z,67.06
2023-05-24T10:24:14.213Z,66.77
2023-05-24T10:26:44.517Z,66.39
2023-05-24T10:29:26.849Z,66.62
2023-05-24T10:31:57.656Z,66.57
2023-05-24T10:34:24.676Z,66.68
2023-05-24T10:36:54.847Z,66.43
2023-05-24T10:39:23.161Z,65.70
2023-05-24T10:41:58.706Z,65.82
2023-05-24T10:44:33.677Z,64.34
2023-05-24T10:47:13.431Z,64.91
2023-05-24T10:49:52.037Z,64.88
2023-05-24T10:52:23.695Z,65.21
2023-05-24T10:55:05.727Z,64.44
2023-05-24T10:57:38.588Z,64.14
2023-05-24T11:00:33.722Z,64.18
2023-05-24T11:03:09.666Z,64.55
2023-05-24T11:05:50.291Z,63.04
2023-05-24T11:08:30.433Z,62.51
2023-05-24T11:11:31.365Z,62.50
2023-05-24T11:14:09.611Z,62.91
2023-05-24T11:16:46.027Z,61.57
2023-05-24T11:19:31.376Z,62.23
2023-05-24T11:22:04.413Z,62.54
2023-05-24T11:24:39.364Z,63.28
2023-05-24T11:27:14.366Z,63.33
2023-05-24T11:29:47.078Z,62.75
2023-05-24T11:32:21.445Z,62.28
2023-05-24T11:34:48.888Z,62.08
2023-05-24T11:37:18.337Z,62.95
2023-05-24T11:39:55.972Z,62.43
2023-05-24T11:42:23.926Z,61.78
2023-05-24T11:44:54.034Z,62.17
2023-05-24T11:47:23.694Z,62.05
2023-05-24T11:49:51.857Z,61.88
2023-05-24T11:52:18.780Z,62.51
2023-05-24T11:54:45.608Z,61.95
2023-05-24T11:57:14.806Z,62.33
2023-05-24T11:59:48.713Z,62.17
2023-05-24T12:02:23.655Z,61.86
2023-05-24T12:04:53.114Z,61.81
2023-05-24T12:07:24.512Z,62.29
2023-05-24T12:09:53.619Z,62.20
2023-05-24T12:12:30.609Z,62.13
2023-05-24T12:15:01.207Z,61.99
2023-05-24T12:17:32.618Z,62.00
2023-05-24T12:20:06.600Z,61.70
2023-05-24T12:22:35.984Z,61.57
2023-05-24T12:25:03.756Z,61.30
2023-05-24T12:27:36.574Z,61.41
2023-05-24T12:30:18.904Z,61.11
2023-05-24T12:32:49.541Z,59.98
2023-05-24T12:35:22.046Z,60.25
2023-05-24T12:37:49.588Z,60.69
2023-05-24T12:40:17.562Z,60.23
2023-05-24T12:42:49.605Z,60.31
2023-05-24T12:45:25.947Z,60.07
2023-05-24T12:47:58.561Z,60.54
2023-05-24T12:50:27.823Z,60.89
2023-05-24T12:53:01.394Z,61.10
2023-05-24T12:55:34.013Z,60.41
2023-05-24T12:58:09.715Z,60.14
2023-05-24T13:00:39.670Z,59.52
2023-05-24T13:03:11.449Z,59.35
2023-05-24T13:05:46.263Z,59.13
2023-05-24T13:08:20.684Z,59.24
2023-05-24T13:10:50.952Z,59.25
2023-05-24T13:13:20.309Z,58.65
2023-05-24T13:15:47.645Z,59.14
2023-05-24T13:18:17.558Z,59.15
2023-05-24T13:20:47.097Z,59.02
2023-05-24T13:23:21.248Z,58.11
2023-05-24T13:25:48.102Z,58.76
2023-05-24T13:28:20.599Z,57.70
2023-05-24T13:30:47.829Z,58.04
2023-05-24T13:33:19.641Z,57.97
2023-05-24T13:35:46.518Z,57.79
2023-05-24T13:38:18.134Z,57.13
2023-05-24T13:40:48.588Z,57.08
2023-05-24T13:43:18.266Z,55.78
2023-05-24T13:45:48.157Z,55.79
2023-05-24T13:48:17.422Z,56.79
2023-05-24T13:50:51.420Z,56.73
2023-05-24T13:53:18.753Z,56.28
2023-05-24T13:55:45.619Z,56.15
2023-05-24T13:58:15.835Z,54.66
2023-05-24T14:00:45.560Z,55.23
2023-05-24T14:03:13.260Z,55.21
2023-05-24T14:05:45.100Z,54.35
2023-05-24T14:08:16.815Z,54.60
2023-05-24T14:10:47.210Z,54.63
2023-05-24T14:13:39.557Z,54.21
2023-05-24T14:16:03.286Z,53.18
2023-05-24T14:18:30.283Z,53.59
2023-05-24T14:21:01.696Z,53.40
2023-05-24T14:23:32.109Z,53.42
2023-05-24T14:26:02.071Z,54.29
2023-05-24T14:28:31.470Z,54.53
2023-05-24T14:30:58.325Z,54.58
2023-05-24T14:33:25.272Z,54.74
2023-05-24T14:35:54.768Z,54.04
2023-05-24T14:38:26.473Z,53.91
2023-05-24T14:40:59.863Z,53.68
2023-05-24T14:43:29.318Z,53.83
2023-05-24T14:45:56.696Z,53.66
2023-05-24T14:48:25.693Z,54.04
2023-05-24T14:50:57.821Z,54.38
2023-05-24T14:53:32.157Z,54.56
2023-05-24T14:56:05.198Z,54.69
2023-05-24T14:58:34.421Z,54.54
2023-05-24T15:01:08.777Z,54.52
2023-05-24T15:03:40.815Z,53.13
2023-05-24T15:06:10.170Z,53.30
2023-05-24T15:08:41.850Z,53.94
2023-05-24T15:11:11.474Z,53.32
2023-05-24T15:13:38.755Z,53.36
2023-05-24T15:16:05.815Z,54.19
2023-05-24T15:18:34.917Z,54.52
2023-05-24T15:21:04.289Z,54.46
2023-05-24T15:23:36.672Z,54.76
2023-05-24T15:26:08.426Z,53.42
2023-05-24T15:28:37.824Z,53.63
2023-05-24T15:31:09.335Z,53.76
2023-05-24T15:33:38.633Z,53.76
2023-05-24T15:36:08.150Z,53.27
2023-05-24T15:38:38.986Z,52.95
2023-05-24T15:41:08.180Z,52.95
2023-05-24T15:43:37.541Z,52.53
2023-05-24T15:46:09.298Z,52.63
2023-05-24T15:48:36.172Z,53.55
2023-05-24T15:53:40.391Z,52.50
2023-05-24T15:56:12.062Z,52.94
2023-05-24T15:58:44.234Z,53.88
2023-05-24T16:01:13.381Z,54.03
2023-05-24T16:03:44.699Z,53.54
2023-05-24T16:06:16.517Z,53.16
2023-05-24T16:08:46.074Z,53.46
2023-05-24T16:11:13.610Z,53.03
2023-05-24T16:13:40.614Z,53.43
2023-05-24T16:16:09.969Z,52.85
2023-05-24T16:18:41.767Z,52.82
2023-05-24T16:21:11.534Z,53.00
2023-05-24T16:23:43.464Z,53.08
2023-05-24T16:26:15.484Z,52.97
2023-05-24T16:28:49.356Z,52.73
2023-05-24T16:31:23.190Z,52.80
2023-05-24T16:33:50.083Z,53.78
2023-05-24T16:36:23.980Z,53.27
2023-05-24T16:38:55.601Z,54.07
2023-05-24T16:41:22.419Z,53.93
2023-05-24T16:43:51.599Z,53.48
2023-05-24T16:46:23.971Z,53.94
2023-05-24T16:48:50.976Z,53.93
2023-05-24T16:51:22.468Z,54.07
2023-05-24T16:53:54.131Z,53.99
2023-05-24T16:56:24.015Z,54.32
2023-05-24T16:58:53.295Z,54.35
2023-05-24T17:01:24.884Z,54.12
2023-05-24T17:03:54.314Z,54.52
2023-05-24T17:06:25.942Z,54.84
2023-05-24T17:08:52.779Z,54.66
2023-05-24T17:11:20.127Z,53.94
2023-05-24T17:13:50.762Z,53.26
2023-05-24T17:16:28.770Z,54.05
2023-05-24T17:18:58.666Z,54.74
2023-05-24T17:21:30.958Z,54.90
2023-05-24T17:24:02.565Z,55.55
2023-05-24T17:26:29.399Z,55.27
2023-05-24T17:28:56.618Z,55.27
2023-05-24T17:31:25.894Z,55.13
2023-05-24T17:33:55.174Z,55.35
2023-05-24T17:36:33.685Z,55.34
2023-05-24T17:39:04.900Z,55.20
2023-05-24T17:41:34.044Z,55.74
2023-05-24T17:44:05.986Z,55.27
2023-05-24T17:46:36.815Z,55.49
2023-05-24T17:49:07.193Z,55.62
2023-05-24T17:51:39.248Z,55.76
2023-05-24T17:54:06.526Z,55.51
2023-05-24T17:56:38.067Z,55.79
2023-05-24T17:59:11.345Z,55.38
2023-05-24T18:01:44.186Z,55.49
2023-05-24T18:04:16.096Z,56.07
2023-05-24T18:06:42.989Z,55.57
2023-05-24T18:09:10.551Z,55.61
2023-05-24T18:11:39.820Z,54.78
2023-05-24T18:14:08.863Z,53.54
2023-05-24T18:16:40.655Z,53.28
2023-05-24T18:19:07.713Z,53.47
2023-05-24T18:21:39.052Z,53.67
2023-05-24T18:24:06.078Z,53.53
2023-05-24T18:26:40.595Z,54.07
2023-05-24T18:29:12.782Z,54.10
2023-05-24T18:31:44.418Z,54.56
2023-05-24T18:34:15.937Z,53.74
2023-05-24T18:36:47.722Z,53.91
2023-05-24T18:39:14.695Z,54.45
2023-05-24T18:41:46.285Z,54.53
2023-05-24T18:44:17.754Z,54.77
2023-05-24T18:46:47.409Z,54.70
2023-05-24T18:49:19.028Z,54.67
2023-05-24T18:51:50.325Z,54.85
2023-05-24T18:54:19.717Z,54.93
2023-05-24T18:56:51.219Z,55.22
2023-05-24T18:59:18.175Z,55.47
2023-05-24T19:01:53.228Z,55.63
2023-05-24T19:04:24.947Z,55.94
2023-05-24T19:06:54.266Z,56.05
2023-05-24T19:09:26.869Z,56.25
2023-05-24T19:11:59.308Z,56.40
2023-05-24T19:14:26.363Z,56.44
2023-05-24T19:16:55.745Z,56.71
2023-05-24T19:19:22.670Z,57.43
2023-05-24T19:21:53.796Z,57.49
2023-05-24T19:24:24.465Z,57.51
2023-05-24T19:26:56.194Z,57.64
2023-05-24T19:29:25.521Z,58.12
2023-05-24T19:31:54.718Z,58.32
2023-05-24T19:34:28.739Z,58.21
2023-05-24T19:36:56.212Z,58.62
2023-05-24T19:39:27.618Z,58.88
2023-05-24T19:41:59.229Z,58.96
2023-05-24T19:44:31.460Z,59.58
2023-05-24T19:47:00.584Z,59.34
2023-05-24T19:49:36.920Z,59.38
2023-05-24T19:52:09.910Z,59.35
2023-05-24T19:54:39.657Z,59.35
2023-05-24T19:57:09.527Z,59.67
2023-05-24T19:59:36.340Z,59.55
2023-05-24T20:02:07.944Z,59.50
2023-05-24T20:04:34.820Z,59.76
2023-05-24T20:07:02.041Z,59.81
2023-05-24T20:09:33.566Z,59.58
2023-05-24T20:12:09.791Z,60.42
2023-05-24T20:14:42.006Z,60.04
2023-05-24T20:17:17.757Z,60.36
2023-05-24T20:19:44.679Z,59.88
2023-05-24T20:22:17.069Z,60.49
2023-05-24T20:24:46.462Z,60.78
2023-05-24T20:27:18.086Z,60.48
2023-05-24T20:29:45.416Z,60.29
2023-05-24T20:32:12.321Z,60.64
2023-05-24T20:34:41.501Z,60.73
2023-05-24T20:37:08.432Z,60.80
2023-05-24T20:39:37.557Z,60.86
2023-05-24T20:42:09.440Z,60.88
2023-05-24T20:44:38.748Z,60.82
2023-05-24T20:47:05.811Z,60.93
2023-05-24T20:49:35.040Z,60.66
2023-05-24T20:52:04.748Z,60.93
2023-05-24T20:54:31.558Z,60.79
2023-05-24T20:56:59.836Z,60.50
2023-05-24T20:59:26.872Z,60.81
2023-05-24T21:01:55.997Z,60.37
2023-05-24T21:04:25.162Z,60.60
2023-05-24T21:06:52.090Z,60.30
2023-05-24T21:09:26.041Z,60.28
2023-05-24T21:11:52.950Z,59.96
2023-05-24T21:14:24.268Z,59.98
2023-05-24T21:16:55.509Z,60.24
2023-05-24T21:19:24.629Z,59.75
2023-05-24T21:21:54.044Z,60.00
2023-05-24T21:24:20.973Z,60.33
2023-05-24T21:26:47.817Z,60.16
2023-05-24T21:29:14.689Z,60.29
2023-05-24T21:31:41.720Z,60.54
2023-05-24T21:34:08.675Z,60.90
2023-05-24T21:36:40.254Z,60.79
2023-05-24T21:39:09.916Z,60.83
2023-05-24T21:41:39.784Z,60.50
2023-05-24T21:44:08.302Z,60.79
2023-05-24T21:46:35.337Z,60.56
2023-05-24T21:49:02.405Z,60.27
2023-05-24T21:51:29.288Z,60.13
2023-05-24T21:53:56.416Z,60.27
2023-05-24T21:56:27.270Z,60.46
2023-05-24T21:58:56.398Z,60.07
2023-05-24T22:01:23.327Z,60.28
2023-05-24T22:03:50.281Z,60.47
2023-05-24T22:06:17.261Z,60.23
2023-05-24T22:08:46.731Z,60.10
2023-05-24T22:11:18.516Z,59.91
2023-05-24T22:13:45.434Z,60.18
2023-05-24T22:16:16.873Z,60.13
2023-05-24T22:18:46.043Z,60.22
2023-05-24T22:21:14.558Z,60.36
2023-05-24T22:23:44.183Z,59.92
2023-05-24T22:26:18.348Z,59.87
2023-05-24T22:28:56.279Z,59.56
2023-05-24T22:31:24.130Z,59.64
2023-05-24T22:33:53.498Z,60.07
2023-05-24T22:36:25.519Z,59.63
2023-05-24T22:38:52.361Z,60.03
2023-05-24T22:41:22.730Z,59.64
2023-05-24T22:43:52.228Z,59.81
2023-05-24T22:46:19.138Z,59.86
2023-05-24T22:48:50.059Z,59.63
2023-05-24T22:51:22.405Z,59.42
2023-05-24T22:53:52.966Z,59.43
2023-05-24T22:56:19.857Z,59.51
2023-05-24T22:58:46.761Z,59.54
2023-05-24T23:01:16.643Z,59.49
2023-05-24T23:03:46.358Z,59.21
2023-05-24T23:06:16.311Z,59.37
2023-05-24T23:08:43.524Z,59.87
2023-05-24T23:11:10.710Z,59.71
2023-05-24T23:13:42.578Z,59.52
2023-05-24T23:16:18.222Z,59.42
2023-05-24T23:18:45.957Z,59.28
2023-05-24T23:21:18.663Z,59.43
2023-05-24T23:23:50.511Z,60.00
2023-05-24T23:26:17.291Z,59.67
2023-05-24T23:28:44.728Z,59.46
2023-05-24T23:31:13.938Z,59.54
2023-05-24T23:33:43.306Z,59.61
2023-05-24T23:36:12.444Z,59.68
2023-05-24T23:38:47.123Z,59.73
2023-05-24T23:41:16.624Z,59.87
2023-05-24T23:43:45.903Z,59.93
2023-05-24T23:46:20.080Z,60.10
2023-05-24T23:48:46.997Z,59.78
2023-05-24T23:51:16.306Z,59.98
2023-05-24T23:53:45.813Z,60.32
2023-05-24T23:56:14.981Z,60.02
2023-05-24T23:58:42.092Z,60.53
